createdAt,value
2023-04-19T00:00:56.703Z,25.47
2023-04-19T00:01:56.770Z,25.39
2023-04-19T00:02:56.926Z,25.41
2023-04-19T00:03:57.039Z,25.46
2023-04-19T00:04:57.486Z,25.41
2023-04-19T00:05:56.965Z,25.39
2023-04-19T00:06:57.006Z,25.41
2023-04-19T00:07:57.090Z,25.39
2023-04-19T00:08:57.122Z,25.41
2023-04-19T00:09:57.147Z,25.42
2023-04-19T00:10:57.193Z,25.42
2023-04-19T00:11:57.279Z,25.45
2023-04-19T00:12:57.298Z,25.36
2023-04-19T00:13:57.347Z,25.39
2023-04-19T00:14:57.393Z,25.41
2023-04-19T00:15:57.465Z,25.42
2023-04-19T00:16:57.551Z,25.45
2023-04-19T00:17:57.604Z,25.42
2023-04-19T00:18:57.594Z,25.38
2023-04-19T00:19:57.663Z,25.38
2023-04-19T00:20:57.694Z,25.39
2023-04-19T00:21:57.736Z,25.39
2023-04-19T00:22:57.836Z,25.39
2023-04-19T00:23:57.842Z,25.36
2023-04-19T00:24:57.870Z,25.38
2023-04-19T00:25:57.949Z,25.41
2023-04-19T00:26:57.999Z,25.45
2023-04-19T00:27:58.038Z,25.41
2023-04-19T00:28:58.093Z,25.39
2023-04-19T00:29:58.152Z,25.41
2023-04-19T00:30:58.282Z,25.38
2023-04-19T00:31:58.251Z,25.36
2023-04-19T00:32:58.352Z,25.41
2023-04-19T00:33:58.332Z,25.38
2023-04-19T00:34:58.403Z,25.39
2023-04-19T00:35:58.437Z,25.36
2023-04-19T00:36:58.465Z,25.43
2023-04-19T00:37:58.535Z,25.39
2023-04-19T00:38:58.570Z,25.42
2023-04-19T00:39:58.601Z,25.36
2023-04-19T00:40:58.655Z,25.37
2023-04-19T00:41:58.710Z,25.38
2023-04-19T00:42:58.765Z,25.38
2023-04-19T00:43:58.822Z,25.39
2023-04-19T00:44:58.883Z,25.39
2023-04-19T00:45:58.988Z,25.42
2023-04-19T00:46:58.962Z,25.39
2023-04-19T00:47:59.074Z,25.41
2023-04-19T00:48:59.090Z,25.39
2023-04-19T00:49:59.126Z,25.38
2023-04-19T00:50:59.176Z,25.38
2023-04-19T00:51:59.203Z,25.39
2023-04-19T00:52:59.264Z,25.37
2023-04-19T00:53:59.294Z,25.39
2023-04-19T00:54:59.359Z,25.35
2023-04-19T00:55:59.435Z,25.35
2023-04-19T00:56:59.469Z,25.36
2023-04-19T00:57:59.515Z,25.36
2023-04-19T00:58:59.594Z,25.36
2023-04-19T00:59:59.592Z,25.34
2023-04-19T01:00:59.634Z,25.39
2023-04-19T01:01:59.792Z,25.34
2023-04-19T01:02:59.937Z,25.36
2023-04-19T01:03:59.913Z,25.37
2023-04-19T01:04:59.846Z,25.31
2023-04-19T01:05:59.876Z,25.34
2023-04-19T01:06:59.896Z,25.30
2023-04-19T01:07:59.944Z,25.30
2023-04-19T01:09:00.007Z,25.33
2023-04-19T01:10:00.057Z,25.31
2023-04-19T01:11:00.079Z,25.26
2023-04-19T01:12:00.164Z,25.28
2023-04-19T01:13:00.171Z,25.31
2023-04-19T01:14:00.188Z,25.27
2023-04-19T01:15:00.263Z,25.23
2023-04-19T01:16:00.383Z,25.23
2023-04-19T01:17:00.334Z,25.29
2023-04-19T01:18:00.364Z,25.16
2023-04-19T01:19:00.352Z,25.23
2023-04-19T01:20:00.394Z,25.16
2023-04-19T01:21:00.427Z,25.21
2023-04-19T01:22:00.467Z,25.22
2023-04-19T01:23:00.475Z,25.20
2023-04-19T01:24:00.520Z,25.14
2023-04-19T01:25:00.550Z,25.13
2023-04-19T01:26:00.545Z,25.14
2023-04-19T01:27:00.557Z,25.11
2023-04-19T01:28:00.611Z,25.10
2023-04-19T01:29:00.639Z,25.05
2023-04-19T01:30:00.675Z,25.07
2023-04-19T01:31:00.781Z,25.07
2023-04-19T01:32:00.721Z,25.03
2023-04-19T01:33:00.750Z,25.03
2023-04-19T01:34:00.772Z,25.05
2023-04-19T01:35:00.769Z,25.01
2023-04-19T01:36:00.782Z,24.98
2023-04-19T01:37:00.809Z,25.01
2023-04-19T01:38:00.792Z,24.98
2023-04-19T01:39:00.812Z,24.97
2023-04-19T01:40:00.842Z,24.95
2023-04-19T01:41:00.857Z,24.90
2023-04-19T01:42:00.864Z,24.90
2023-04-19T01:43:00.904Z,24.91
2023-04-19T01:44:00.926Z,24.93
2023-04-19T01:45:00.901Z,24.86
2023-04-19T01:46:00.965Z,24.90
2023-04-19T01:47:00.944Z,24.87
2023-04-19T01:48:01.009Z,24.89
2023-04-19T01:49:01.001Z,24.84
2023-04-19T01:50:00.983Z,24.84
2023-04-19T01:51:01.006Z,24.86
2023-04-19T01:52:01.006Z,24.83
2023-04-19T01:53:00.999Z,24.83
2023-04-19T01:54:01.020Z,24.89
2023-04-19T01:55:01.010Z,24.82
2023-04-19T01:56:01.004Z,24.86
2023-04-19T01:57:01.035Z,24.82
2023-04-19T01:58:01.055Z,24.83
2023-04-19T01:59:01.064Z,24.85
2023-04-19T02:00:01.133Z,24.84
2023-04-19T02:01:01.157Z,24.77
2023-04-19T02:02:01.123Z,24.79
2023-04-19T02:03:01.191Z,24.82
2023-04-19T02:04:01.159Z,24.79
2023-04-19T02:05:01.084Z,24.82
2023-04-19T02:06:01.108Z,24.77
2023-04-19T02:07:01.083Z,24.85
2023-04-19T02:08:01.097Z,24.80
2023-04-19T02:09:01.082Z,24.74
2023-04-19T02:10:01.074Z,24.75
2023-04-19T02:11:01.080Z,24.80
2023-04-19T02:12:01.088Z,24.77
2023-04-19T02:13:01.066Z,24.78
2023-04-19T02:14:01.074Z,24.71
2023-04-19T02:15:01.102Z,24.74
2023-04-19T02:16:01.127Z,24.78
2023-04-19T02:17:01.062Z,24.74
2023-04-19T02:18:01.102Z,24.74
2023-04-19T02:19:01.050Z,24.75
2023-04-19T02:20:01.102Z,24.77
2023-04-19T02:21:01.052Z,24.71
2023-04-19T02:22:01.060Z,24.73
2023-04-19T02:23:01.065Z,24.70
2023-04-19T02:24:01.056Z,24.70
2023-04-19T02:25:01.046Z,24.71
2023-04-19T02:26:01.017Z,24.71
2023-04-19T02:27:01.078Z,24.71
2023-04-19T02:28:01.101Z,24.71
2023-04-19T02:29:01.039Z,24.71
2023-04-19T02:30:01.070Z,24.67
2023-04-19T02:31:01.040Z,24.73
2023-04-19T02:32:01.106Z,24.70
2023-04-19T02:33:01.119Z,24.76
2023-04-19T02:34:01.062Z,24.66
2023-04-19T02:35:01.053Z,24.70
2023-04-19T02:36:01.068Z,24.69
2023-04-19T02:37:01.075Z,24.72
2023-04-19T02:38:01.065Z,24.66
2023-04-19T02:39:01.071Z,24.65
2023-04-19T02:40:01.056Z,24.63
2023-04-19T02:41:01.072Z,24.68
2023-04-19T02:42:01.102Z,24.66
2023-04-19T02:43:01.111Z,24.69
2023-04-19T02:44:01.147Z,24.70
2023-04-19T02:45:01.145Z,24.67
2023-04-19T02:46:01.223Z,24.69
2023-04-19T02:47:01.145Z,24.65
2023-04-19T02:48:01.179Z,24.68
2023-04-19T02:49:01.197Z,24.71
2023-04-19T02:50:01.217Z,24.62
2023-04-19T02:51:01.202Z,24.63
2023-04-19T02:52:01.211Z,24.63
2023-04-19T02:53:01.247Z,24.64
2023-04-19T02:54:01.254Z,24.62
2023-04-19T02:55:01.256Z,24.62
2023-04-19T02:56:01.281Z,24.58
2023-04-19T02:57:01.276Z,24.62
2023-04-19T02:58:01.328Z,24.62
2023-04-19T02:59:01.336Z,24.61
2023-04-19T03:00:01.350Z,24.61
2023-04-19T03:01:01.390Z,24.64
2023-04-19T03:02:01.445Z,24.62
2023-04-19T03:03:01.674Z,24.64
2023-04-19T03:04:01.488Z,24.59
2023-04-19T03:05:01.537Z,24.62
2023-04-19T03:06:01.554Z,24.63
2023-04-19T03:07:01.574Z,24.61
2023-04-19T03:08:01.594Z,24.61
2023-04-19T03:09:01.735Z,24.58
2023-04-19T03:10:01.656Z,24.56
2023-04-19T03:11:01.677Z,24.57
2023-04-19T03:12:01.743Z,24.59
2023-04-19T03:13:01.696Z,24.58
2023-04-19T03:14:01.712Z,24.57
2023-04-19T03:15:01.720Z,24.55
2023-04-19T03:16:01.827Z,24.57
2023-04-19T03:17:01.834Z,24.61
2023-04-19T03:18:01.854Z,24.52
2023-04-19T03:19:01.861Z,24.55
2023-04-19T03:20:01.957Z,24.52
2023-04-19T03:21:01.985Z,24.57
2023-04-19T03:22:02.008Z,24.51
2023-04-19T03:23:02.098Z,24.51
2023-04-19T03:24:02.073Z,24.55
2023-04-19T03:25:02.177Z,24.57
2023-04-19T03:26:02.179Z,24.58
2023-04-19T03:27:02.240Z,24.54
2023-04-19T03:28:02.377Z,24.52
2023-04-19T03:29:02.367Z,24.55
2023-04-19T03:30:02.406Z,24.58
2023-04-19T03:31:02.442Z,24.51
2023-04-19T03:32:02.516Z,24.55
2023-04-19T03:33:02.549Z,24.58
2023-04-19T03:34:02.583Z,24.52
2023-04-19T03:35:02.630Z,24.58
2023-04-19T03:36:02.667Z,24.53
2023-04-19T03:37:02.720Z,24.52
2023-04-19T03:38:02.772Z,24.52
2023-04-19T03:39:02.819Z,24.54
2023-04-19T03:40:02.896Z,24.55
2023-04-19T03:41:02.856Z,24.52
2023-04-19T03:42:03.001Z,24.55
2023-04-19T03:43:02.981Z,24.55
2023-04-19T03:44:03.188Z,24.55
2023-04-19T03:45:03.147Z,24.51
2023-04-19T03:46:03.272Z,24.53
2023-04-19T03:47:03.242Z,24.50
2023-04-19T03:48:03.473Z,24.51
2023-04-19T03:49:03.346Z,24.52
2023-04-19T03:50:03.375Z,24.50
2023-04-19T03:51:03.444Z,24.53
2023-04-19T03:52:03.467Z,24.49
2023-04-19T03:53:03.582Z,24.51
2023-04-19T03:54:03.618Z,24.50
2023-04-19T03:55:03.723Z,24.51
2023-04-19T03:56:03.753Z,24.53
2023-04-19T03:57:03.834Z,24.47
2023-04-19T03:58:03.856Z,24.49
2023-04-19T03:59:03.927Z,24.53
2023-04-19T04:00:03.976Z,24.49
2023-04-19T04:01:04.061Z,24.51
2023-04-19T04:02:04.194Z,24.47
2023-04-19T04:03:04.350Z,24.51
2023-04-19T04:04:05.329Z,24.51
2023-04-19T04:05:04.353Z,24.47
2023-04-19T04:06:04.388Z,24.49
2023-04-19T04:07:04.427Z,24.50
2023-04-19T04:08:04.489Z,24.47
2023-04-19T04:09:04.573Z,24.47
2023-04-19T04:10:04.634Z,24.47
2023-04-19T04:11:04.670Z,24.49
2023-04-19T04:12:04.759Z,24.49
2023-04-19T04:13:04.813Z,24.46
2023-04-19T04:14:04.891Z,24.52
2023-04-19T04:15:04.921Z,24.45
2023-04-19T04:16:05.087Z,24.49
2023-04-19T04:17:05.046Z,24.46
2023-04-19T04:18:06.058Z,24.46
2023-04-19T04:19:05.178Z,24.43
2023-04-19T04:20:05.252Z,24.45
2023-04-19T04:21:05.301Z,24.46
2023-04-19T04:22:05.332Z,24.49
2023-04-19T04:23:05.421Z,24.48
2023-04-19T04:24:05.506Z,24.47
2023-04-19T04:25:05.544Z,24.46
2023-04-19T04:26:05.625Z,24.45
2023-04-19T04:27:05.666Z,24.49
2023-04-19T04:28:05.716Z,24.45
2023-04-19T04:29:05.790Z,24.43
2023-04-19T04:30:05.857Z,24.43
2023-04-19T04:31:05.923Z,24.48
2023-04-19T04:32:06.092Z,24.41
2023-04-19T04:33:06.048Z,24.46
2023-04-19T04:34:06.131Z,24.44
2023-04-19T04:35:06.177Z,24.41
2023-04-19T04:36:07.223Z,24.36
2023-04-19T04:37:06.221Z,24.41
2023-04-19T04:38:17.643Z,24.46
2023-04-19T04:39:07.226Z,24.44
2023-04-19T04:40:06.227Z,24.42
2023-04-19T04:41:06.196Z,24.41
2023-04-19T04:42:06.178Z,24.42
2023-04-19T04:43:06.172Z,24.39
2023-04-19T04:44:12.482Z,24.42
2023-04-19T04:45:07.182Z,24.41
2023-04-19T04:46:06.216Z,24.38
2023-04-19T04:47:06.152Z,24.35
2023-04-19T04:48:06.213Z,24.35
2023-04-19T04:49:06.183Z,24.34
2023-04-19T04:50:06.147Z,24.40
2023-04-19T04:51:06.140Z,24.37
2023-04-19T04:52:06.127Z,24.36
2023-04-19T04:53:06.121Z,24.35
2023-04-19T04:54:06.154Z,24.38
2023-04-19T04:55:06.207Z,24.33
2023-04-19T04:56:06.269Z,24.38
2023-04-19T04:57:06.376Z,24.37
2023-04-19T04:58:06.383Z,24.37
2023-04-19T04:59:06.446Z,24.35
2023-04-19T05:00:06.526Z,24.34
2023-04-19T05:02:25.815Z,24.40
2023-04-19T05:03:25.714Z,24.40
2023-04-19T05:04:25.744Z,24.35
2023-04-19T05:05:25.642Z,24.35
2023-04-19T05:06:25.653Z,24.38
2023-04-19T05:07:25.655Z,24.35
2023-04-19T05:08:25.668Z,24.35
2023-04-19T05:09:25.640Z,24.35
2023-04-19T05:10:25.665Z,24.37
2023-04-19T05:11:25.629Z,24.35
2023-04-19T05:12:25.625Z,24.34
2023-04-19T05:13:25.584Z,24.40
2023-04-19T05:14:25.586Z,24.38
2023-04-19T05:15:25.589Z,24.38
2023-04-19T05:16:25.614Z,24.33
2023-04-19T05:17:25.646Z,24.35
2023-04-19T05:18:25.601Z,24.35
2023-04-19T05:19:25.570Z,24.35
2023-04-19T05:20:25.582Z,24.37
2023-04-19T05:21:25.549Z,24.37
2023-04-19T05:22:25.531Z,24.33
2023-04-19T05:23:25.560Z,24.34
2023-04-19T05:24:25.558Z,24.39
2023-04-19T05:25:26.541Z,24.35
2023-04-19T05:26:25.526Z,24.33
2023-04-19T05:27:25.518Z,24.37
2023-04-19T05:28:25.870Z,24.38
2023-04-19T05:29:25.505Z,24.35
2023-04-19T05:30:25.501Z,24.38
2023-04-19T05:31:25.491Z,24.35
2023-04-19T05:32:25.510Z,24.37
2023-04-19T05:33:25.467Z,24.35
2023-04-19T05:34:25.517Z,24.68
2023-04-19T05:35:25.613Z,24.82
2023-04-19T05:36:25.609Z,24.92
2023-04-19T05:37:25.540Z,25.68
2023-04-19T05:38:25.596Z,26.37
2023-04-19T05:39:25.572Z,26.13
2023-04-19T05:40:25.573Z,25.86
2023-04-19T05:41:25.564Z,26.20
2023-04-19T05:42:25.524Z,26.23
2023-04-19T05:43:25.891Z,26.85
2023-04-19T05:44:25.529Z,26.75
2023-04-19T05:45:32.584Z,26.99
2023-04-19T05:46:25.564Z,27.76
2023-04-19T05:47:25.536Z,28.00
2023-04-19T05:48:25.915Z,27.47
2023-04-19T05:49:25.491Z,27.16
2023-04-19T05:50:25.519Z,26.57
2023-04-19T05:51:25.477Z,26.04
2023-04-19T05:52:25.469Z,25.90
2023-04-19T05:53:25.930Z,25.69
2023-04-19T05:54:25.521Z,25.60
2023-04-19T05:55:25.454Z,25.62
2023-04-19T05:56:25.476Z,25.54
2023-04-19T05:57:25.500Z,26.06
2023-04-19T05:58:25.433Z,26.70
2023-04-19T05:59:25.460Z,27.19
2023-04-19T06:00:25.453Z,26.94
2023-04-19T06:01:25.477Z,27.62
2023-04-19T06:02:25.661Z,26.77
2023-04-19T06:03:27.740Z,26.70
2023-04-19T06:04:26.510Z,26.47
2023-04-19T06:05:25.805Z,26.67
2023-04-19T06:06:25.542Z,26.55
2023-04-19T06:07:31.941Z,26.42
2023-04-19T06:08:26.382Z,26.60
2023-04-19T06:09:25.414Z,26.81
2023-04-19T06:10:31.340Z,26.61
2023-04-19T06:11:34.841Z,26.53
2023-04-19T06:12:26.364Z,26.59
2023-04-19T06:13:25.465Z,26.47
2023-04-19T06:14:25.322Z,26.69
2023-04-19T06:15:25.310Z,26.38
2023-04-19T06:16:25.386Z,26.50
2023-04-19T06:17:25.619Z,26.65
2023-04-19T06:18:25.330Z,26.76
2023-04-19T06:19:25.337Z,26.83
2023-04-19T06:20:25.342Z,26.85
2023-04-19T06:21:25.282Z,26.64
2023-04-19T06:22:25.313Z,26.71
2023-04-19T06:23:25.356Z,26.78
2023-04-19T06:24:25.254Z,26.81
2023-04-19T06:25:25.271Z,26.50
2023-04-19T06:26:25.230Z,26.66
2023-04-19T06:27:25.239Z,26.90
2023-04-19T06:28:25.270Z,26.83
2023-04-19T06:29:25.221Z,27.15
2023-04-19T06:30:25.247Z,26.81
2023-04-19T06:31:25.284Z,26.68
2023-04-19T06:32:25.257Z,26.68
2023-04-19T06:33:25.228Z,26.60
2023-04-19T06:34:25.237Z,26.81
2023-04-19T06:35:25.167Z,27.01
2023-04-19T06:36:25.228Z,26.78
2023-04-19T06:37:25.181Z,28.56
2023-04-19T06:38:25.241Z,30.26
2023-04-19T06:39:25.164Z,30.17
2023-04-19T06:40:25.174Z,30.04
2023-04-19T06:41:25.136Z,29.10
2023-04-19T06:42:25.162Z,29.34
2023-04-19T06:43:25.124Z,28.84
2023-04-19T06:44:25.116Z,28.72
2023-04-19T06:45:25.116Z,28.10
2023-04-19T06:46:25.219Z,28.23
2023-04-19T06:47:25.126Z,28.45
2023-04-19T06:48:25.079Z,27.96
2023-04-19T06:49:25.100Z,28.07
2023-04-19T06:50:25.074Z,27.69
2023-04-19T06:51:25.072Z,27.86
2023-04-19T06:52:25.084Z,28.03
2023-04-19T06:53:25.094Z,27.86
2023-04-19T06:54:25.422Z,27.75
2023-04-19T06:55:25.183Z,27.74
2023-04-19T06:56:25.300Z,27.71
2023-04-19T06:57:25.238Z,27.83
2023-04-19T06:58:25.315Z,27.91
2023-04-19T06:59:25.362Z,28.03
2023-04-19T07:00:25.426Z,28.18
2023-04-19T07:01:25.482Z,28.01
2023-04-19T07:02:25.566Z,28.22
2023-04-19T07:03:25.630Z,28.09
2023-04-19T07:04:26.040Z,28.36
2023-04-19T07:05:25.631Z,28.26
2023-04-19T07:06:25.631Z,28.12
2023-04-19T07:07:25.703Z,28.13
2023-04-19T07:08:32.225Z,28.03
2023-04-19T07:09:26.969Z,28.09
2023-04-19T07:10:25.741Z,28.14
2023-04-19T07:11:25.737Z,28.50
2023-04-19T07:12:25.705Z,28.43
2023-04-19T07:13:25.709Z,28.10
2023-04-19T07:14:25.942Z,28.03
2023-04-19T07:15:25.678Z,28.26
2023-04-19T07:16:25.823Z,28.22
2023-04-19T07:17:25.660Z,28.68
2023-04-19T07:18:25.691Z,28.57
2023-04-19T07:19:25.663Z,28.55
2023-04-19T07:20:25.665Z,28.41
2023-04-19T07:21:25.658Z,29.22
2023-04-19T07:22:25.665Z,29.06
2023-04-19T07:23:25.621Z,28.48
2023-04-19T07:24:25.635Z,28.14
2023-04-19T07:25:25.664Z,28.07
2023-04-19T07:26:25.635Z,28.06
2023-04-19T07:27:25.625Z,28.01
2023-04-19T07:28:25.791Z,27.98
2023-04-19T07:29:25.975Z,28.25
2023-04-19T07:30:25.680Z,28.14
2023-04-19T07:31:25.643Z,28.23
2023-04-19T07:32:25.703Z,28.90
2023-04-19T07:33:28.010Z,29.66
2023-04-19T07:34:25.933Z,29.32
2023-04-19T07:35:26.412Z,29.91
2023-04-19T07:36:25.921Z,29.63
2023-04-19T07:37:25.981Z,29.56
2023-04-19T07:38:26.059Z,29.71
2023-04-19T07:39:26.096Z,29.75
2023-04-19T07:40:26.253Z,29.71
2023-04-19T07:41:26.256Z,30.32
2023-04-19T07:42:26.257Z,30.43
2023-04-19T07:43:26.460Z,31.03
2023-04-19T07:44:26.493Z,29.94
2023-04-19T07:45:26.417Z,30.12
2023-04-19T07:46:26.487Z,29.34
2023-04-19T07:47:26.543Z,29.05
2023-04-19T07:48:26.550Z,29.74
2023-04-19T07:49:26.627Z,30.31
2023-04-19T07:50:26.633Z,30.70
2023-04-19T07:51:26.692Z,30.84
2023-04-19T07:52:26.660Z,31.03
2023-04-19T07:53:26.719Z,30.62
2023-04-19T07:54:26.732Z,30.66
2023-04-19T07:55:26.681Z,30.81
2023-04-19T07:56:26.695Z,31.04
2023-04-19T07:57:26.733Z,31.44
2023-04-19T07:58:26.799Z,31.30
2023-04-19T07:59:26.987Z,31.15
2023-04-19T08:00:26.950Z,31.11
2023-04-19T08:01:27.015Z,30.50
2023-04-19T08:02:27.223Z,30.70
2023-04-19T08:03:27.408Z,29.99
2023-04-19T08:04:27.622Z,29.71
2023-04-19T08:05:27.254Z,29.53
2023-04-19T08:06:27.249Z,29.79
2023-04-19T08:07:27.254Z,29.57
2023-04-19T08:08:27.217Z,29.15
2023-04-19T08:09:27.287Z,29.46
2023-04-19T08:10:27.294Z,29.12
2023-04-19T08:11:27.249Z,28.92
2023-04-19T08:12:36.251Z,28.91
2023-04-19T08:13:28.256Z,29.02
2023-04-19T08:14:37.771Z,28.77
2023-04-19T08:15:56.929Z,28.77
2023-04-19T08:17:06.442Z,28.37
2023-04-19T08:17:32.640Z,28.17
2023-04-19T08:18:28.288Z,28.57
2023-04-19T08:19:27.204Z,29.45
2023-04-19T08:20:27.168Z,30.03
2023-04-19T08:21:34.650Z,29.75
2023-04-19T08:22:28.179Z,29.79
2023-04-19T08:23:32.019Z,29.59
2023-04-19T08:24:28.198Z,29.72
2023-04-19T08:25:27.171Z,29.77
2023-04-19T08:26:27.186Z,30.54
2023-04-19T08:27:27.139Z,30.56
2023-04-19T08:28:27.137Z,30.54
2023-04-19T08:29:27.130Z,30.32
2023-04-19T08:30:27.170Z,30.74
2023-04-19T08:31:27.297Z,30.47
2023-04-19T08:32:27.127Z,30.01
2023-04-19T08:33:27.155Z,30.04
2023-04-19T08:34:27.244Z,29.47
2023-04-19T08:35:27.498Z,29.03
2023-04-19T08:36:36.981Z,28.84
2023-04-19T08:37:28.354Z,28.68
2023-04-19T08:38:27.307Z,28.80
2023-04-19T08:39:32.882Z,29.12
2023-04-19T08:40:28.960Z,29.16
2023-04-19T08:41:27.315Z,29.22
2023-04-19T08:42:35.601Z,29.38
2023-04-19T08:43:28.330Z,29.56
2023-04-19T08:44:35.866Z,29.66
2023-04-19T08:45:29.085Z,29.72
2023-04-19T08:46:27.404Z,29.74
2023-04-19T08:47:30.809Z,29.72
2023-04-19T08:48:28.302Z,29.89
2023-04-19T08:49:27.257Z,30.10
2023-04-19T08:50:34.565Z,30.03
2023-04-19T08:51:28.250Z,30.53
2023-04-19T08:52:27.243Z,30.46
2023-04-19T08:53:27.239Z,30.26
2023-04-19T08:54:27.212Z,30.02
2023-04-19T08:55:27.488Z,30.76
2023-04-19T08:56:34.858Z,29.92
2023-04-19T08:57:28.262Z,29.50
2023-04-19T08:58:37.089Z,30.01
2023-04-19T08:59:28.241Z,30.09
2023-04-19T09:00:27.553Z,30.35
2023-04-19T09:01:35.322Z,30.02
2023-04-19T09:02:28.326Z,29.82
2023-04-19T09:03:27.427Z,29.91
2023-04-19T09:04:36.839Z,29.94
2023-04-19T09:05:28.389Z,30.27
2023-04-19T09:06:27.306Z,30.00
2023-04-19T09:07:27.161Z,29.99
2023-04-19T09:08:27.157Z,29.76
2023-04-19T09:10:27.176Z,29.23
2023-04-19T09:11:27.198Z,29.01
2023-04-19T09:12:27.158Z,28.96
2023-04-19T09:13:27.904Z,28.84
2023-04-19T09:14:27.138Z,29.19
2023-04-19T09:15:27.116Z,29.09
2023-04-19T09:16:27.261Z,28.84
2023-04-19T09:17:27.114Z,28.99
2023-04-19T09:18:28.336Z,29.11
2023-04-19T09:19:27.394Z,29.12
2023-04-19T09:20:27.105Z,29.04
2023-04-19T09:21:27.074Z,28.65
2023-04-19T09:22:27.056Z,28.67
2023-04-19T09:23:27.028Z,28.58
2023-04-19T09:24:27.071Z,28.66
2023-04-19T09:25:41.445Z,28.61
2023-04-19T09:26:28.193Z,28.45
2023-04-19T09:27:27.020Z,28.59
2023-04-19T09:28:27.023Z,28.23
2023-04-19T09:29:27.069Z,28.38
2023-04-19T09:30:31.407Z,28.28
2023-04-19T09:31:43.430Z,28.32
2023-04-19T09:32:28.122Z,28.38
2023-04-19T09:33:27.033Z,28.38
2023-04-19T09:34:27.024Z,28.35
2023-04-19T09:35:26.967Z,28.36
2023-04-19T09:36:27.049Z,28.27
2023-04-19T09:37:50.831Z,28.28
2023-04-19T09:38:27.980Z,28.33
2023-04-19T09:39:26.967Z,28.33
2023-04-19T09:40:27.059Z,28.44
2023-04-19T09:41:26.995Z,28.55
2023-04-19T09:45:30.648Z,27.81
2023-04-19T09:46:27.189Z,28.21
2023-04-19T09:47:26.933Z,29.25
2023-04-19T09:48:26.894Z,28.71
2023-04-19T09:49:41.111Z,27.97
2023-04-19T09:50:27.935Z,28.19
2023-04-19T09:51:26.931Z,27.75
2023-04-19T09:52:26.859Z,27.50
2023-04-19T09:53:26.863Z,27.23
2023-04-19T09:54:26.867Z,26.86
2023-04-19T09:55:28.815Z,26.60
2023-04-19T09:56:26.997Z,26.35
2023-04-19T09:57:26.842Z,26.36
2023-04-19T09:58:31.797Z,25.95
2023-04-19T09:59:27.846Z,26.03
2023-04-19T10:00:28.335Z,26.60
2023-04-19T10:01:27.027Z,26.35
2023-04-19T10:02:27.041Z,26.14
2023-04-19T10:03:26.886Z,25.79
2023-04-19T10:04:38.255Z,25.79
2023-04-19T10:05:27.930Z,25.77
2023-04-19T10:06:45.731Z,25.78
2023-04-19T10:07:30.513Z,25.65
2023-04-19T10:08:26.985Z,25.56
2023-04-19T10:09:26.980Z,25.46
2023-04-19T10:11:27.104Z,25.60
2023-04-19T10:13:27.175Z,25.41
2023-04-19T10:14:26.951Z,25.57
2023-04-19T10:15:33.749Z,25.57
2023-04-19T10:16:27.970Z,25.48
2023-04-19T10:17:26.964Z,25.28
2023-04-19T10:18:26.961Z,25.22
2023-04-19T10:19:26.948Z,25.15
2023-04-19T10:20:26.958Z,25.23
2023-04-19T10:21:27.024Z,25.23
2023-04-19T10:22:26.917Z,25.23
2023-04-19T10:23:26.964Z,25.07
2023-04-19T10:24:26.921Z,25.06
2023-04-19T10:25:26.893Z,25.04
2023-04-19T10:26:26.851Z,25.09
2023-04-19T10:27:26.935Z,25.00
2023-04-19T10:28:26.868Z,25.04
2023-04-19T10:29:26.848Z,25.00
2023-04-19T10:30:26.833Z,24.94
2023-04-19T10:31:26.918Z,25.00
2023-04-19T10:32:26.850Z,25.17
2023-04-19T10:33:26.884Z,25.17
2023-04-19T10:34:26.923Z,25.19
2023-04-19T10:35:26.925Z,25.38
2023-04-19T10:36:26.957Z,25.27
2023-04-19T10:37:27.531Z,25.20
2023-04-19T10:38:27.048Z,25.08
2023-04-19T10:39:27.044Z,25.01
2023-04-19T10:40:27.109Z,25.02
2023-04-19T10:41:27.154Z,24.91
2023-04-19T10:42:27.201Z,24.93
2023-04-19T10:43:27.230Z,24.91
2023-04-19T10:44:27.253Z,24.98
2023-04-19T10:45:27.331Z,24.92
2023-04-19T10:46:27.409Z,24.91
2023-04-19T10:47:27.549Z,24.92
2023-04-19T10:48:27.434Z,24.78
2023-04-19T10:49:27.490Z,25.31
2023-04-19T10:50:27.538Z,25.22
2023-04-19T10:51:27.583Z,25.09
2023-04-19T10:52:27.675Z,24.92
2023-04-19T10:53:27.722Z,24.87
2023-04-19T10:54:27.712Z,24.85
2023-04-19T10:55:27.885Z,24.75
2023-04-19T10:56:27.807Z,24.68
2023-04-19T10:57:27.815Z,24.60
2023-04-19T10:58:27.905Z,24.44
2023-04-19T10:59:27.926Z,24.49
2023-04-19T11:00:27.933Z,24.54
2023-04-19T11:01:28.020Z,24.48
2023-04-19T11:02:28.280Z,24.49
2023-04-19T11:03:28.311Z,24.46
2023-04-19T11:04:28.293Z,24.47
2023-04-19T11:05:28.107Z,24.49
2023-04-19T11:06:28.171Z,24.36
2023-04-19T11:07:28.205Z,24.30
2023-04-19T11:08:28.271Z,24.26
2023-04-19T11:09:28.245Z,24.19
2023-04-19T11:10:28.244Z,24.13
2023-04-19T11:11:28.322Z,24.07
2023-04-19T11:12:28.532Z,24.04
2023-04-19T11:13:28.357Z,24.10
2023-04-19T11:14:28.449Z,24.09
2023-04-19T11:15:28.444Z,24.11
2023-04-19T11:16:41.983Z,23.92
2023-04-19T11:17:29.523Z,24.06
2023-04-19T11:18:28.531Z,24.11
2023-04-19T11:19:28.467Z,24.07
2023-04-19T11:20:28.440Z,24.10
2023-04-19T11:21:30.314Z,24.12
2023-04-19T11:22:28.501Z,24.17
2023-04-19T11:23:28.448Z,24.02
2023-04-19T11:24:28.475Z,24.63
2023-04-19T11:25:28.465Z,24.95
2023-04-19T11:26:28.416Z,25.50
2023-04-19T11:27:28.540Z,25.57
2023-04-19T11:28:28.414Z,25.84
2023-04-19T11:29:28.389Z,25.70
2023-04-19T11:30:28.498Z,25.55
2023-04-19T11:31:28.597Z,25.32
2023-04-19T11:32:28.587Z,25.18
2023-04-19T11:33:28.566Z,25.39
2023-04-19T11:34:28.585Z,25.53
2023-04-19T11:35:28.682Z,25.92
2023-04-19T11:36:28.633Z,26.03
2023-04-19T11:37:29.015Z,25.96
2023-04-19T11:38:28.717Z,25.96
2023-04-19T11:39:28.709Z,26.01
2023-04-19T11:40:28.728Z,26.05
2023-04-19T11:41:28.761Z,25.99
2023-04-19T11:42:28.753Z,26.02
2023-04-19T11:43:28.774Z,25.95
2023-04-19T11:44:28.793Z,25.99
2023-04-19T11:45:31.145Z,26.00
2023-04-19T11:46:28.828Z,25.97
2023-04-19T11:47:28.897Z,25.97
2023-04-19T11:48:28.771Z,25.84
2023-04-19T11:49:28.822Z,25.74
2023-04-19T11:50:28.792Z,25.67
2023-04-19T11:51:28.803Z,25.60
2023-04-19T11:52:28.795Z,25.50
2023-04-19T11:53:28.816Z,25.53
2023-04-19T11:54:28.779Z,25.52
2023-04-19T11:55:28.756Z,25.55
2023-04-19T11:56:28.743Z,25.49
2023-04-19T11:57:28.741Z,25.52
2023-04-19T11:58:28.746Z,25.52
2023-04-19T11:59:28.825Z,25.47
2023-04-19T12:00:28.734Z,25.34
2023-04-19T12:01:28.721Z,25.35
2023-04-19T12:02:28.821Z,25.45
2023-04-19T12:03:28.795Z,25.42
2023-04-19T12:04:28.915Z,25.45
2023-04-19T12:05:28.956Z,25.32
2023-04-19T12:06:28.668Z,25.27
2023-04-19T12:07:28.642Z,25.30
2023-04-19T12:08:28.658Z,25.15
2023-04-19T12:09:28.626Z,25.22
2023-04-19T12:10:28.628Z,25.18
2023-04-19T12:11:28.632Z,25.10
2023-04-19T12:12:28.593Z,25.17
2023-04-19T12:13:28.642Z,25.20
2023-04-19T12:14:28.650Z,25.22
2023-04-19T12:15:28.878Z,25.22
2023-04-19T12:16:28.658Z,25.14
2023-04-19T12:17:28.618Z,25.10
2023-04-19T12:18:28.681Z,25.14
2023-04-19T12:19:28.582Z,25.04
2023-04-19T12:20:28.593Z,25.10
2023-04-19T12:21:28.575Z,25.10
2023-04-19T12:22:28.565Z,25.00
2023-04-19T12:23:28.546Z,25.08
2023-04-19T12:24:28.534Z,25.03
2023-04-19T12:25:28.518Z,25.06
2023-04-19T12:26:28.536Z,25.03
2023-04-19T12:27:28.501Z,24.99
2023-04-19T12:28:29.047Z,25.03
2023-04-19T12:29:28.501Z,25.17
2023-04-19T12:30:28.516Z,25.07
2023-04-19T12:31:28.703Z,25.09
2023-04-19T12:32:28.514Z,25.01
2023-04-19T12:33:28.484Z,24.93
2023-04-19T12:34:28.456Z,24.88
2023-04-19T12:35:28.485Z,24.89
2023-04-19T12:36:28.484Z,24.93
2023-04-19T12:37:28.456Z,24.93
2023-04-19T12:38:28.427Z,24.81
2023-04-19T12:39:28.437Z,25.00
2023-04-19T12:40:28.461Z,24.94
2023-04-19T12:41:28.452Z,24.93
2023-04-19T12:42:28.437Z,25.04
2023-04-19T12:43:28.438Z,25.03
2023-04-19T12:44:28.445Z,24.86
2023-04-19T12:45:28.447Z,24.80
2023-04-19T12:46:28.416Z,24.93
2023-04-19T12:47:28.450Z,25.00
2023-04-19T12:48:28.407Z,24.82
2023-04-19T12:49:28.399Z,24.82
2023-04-19T12:50:28.377Z,24.86
2023-04-19T12:51:29.051Z,24.96
2023-04-19T12:52:28.350Z,24.83
2023-04-19T12:53:28.351Z,24.80
2023-04-19T12:54:28.363Z,24.77
2023-04-19T12:55:28.379Z,24.79
2023-04-19T12:56:28.349Z,24.80
2023-04-19T12:57:28.357Z,24.82
2023-04-19T12:58:28.573Z,24.84
2023-04-19T12:59:28.303Z,25.23
2023-04-19T13:00:28.316Z,25.23